METAR Data
IDs: Format: Raw Decoded Include TAF

Data at: 1926 UTC 31 Jul 2021

METAR for:KNYG (Quantico (MCAF), VA, US)
Text:KNYG 311856Z AUTO 19004KT 8SM CLR 26/16 A2999 RMK AO2 SLP156 T02560161 $
Temperature: 25.6°C ( 78°F)
Dewpoint: 16.1°C ( 61°F) [RH = 56%]
Pressure (altimeter):29.99 inches Hg (1015.7 mb) [Sea level pressure: 1015.6 mb]
Winds:from the S (190 degrees) at 5 MPH (4 knots; 2.1 m/s)
Visibility: 8 sm ( 13 km)
Ceiling:at least 12,000 feet AGL
Clouds:sky clear below 12,000 feet AGL
QC Flag:automated observation with no human augmentation; SOME DATA ABOVE MAY BE INACCURATE!!!"$" is an indication the sensor requires maintenance.